If you wish to contribute or participate in the discussions about articles you are invited to join SKYbrary as a registered user

 Actions

Punta Arenas/ Presidente Carlos Ibáñez del Campo International Airport

From SKYbrary Wiki

SCCI
Airport
ICAO: SCCI – IATA: PUQ
Summary
Name Punta Arenas/ Presidente Carlos Ibáñez del Campo International Airport
Region South America and Caribbean
Territory Chile CL.gif
Location Punta Arenas, Magallanes y Antártica Chilena
Serving Punta Arenas
Elevation 42.367 m
139 ft
139 ft42.367 m
Coordinates 53° 0' 12.00" S, 70° 51' 12.00" W
Runways
Designator Length Width Surface ROPS
1/19 1678 m5,505.249 ft
45 m147.638 ft
ASP /
7/25 2790 m9,153.543 ft
45 m147.638 ft
ASP /
12/30 2400 m7,874.016 ft
45 m147.638 ft
ASP /


METAR
Observation SCCI 220300Z 30022KT 9999 FEW040 SCT100 08/02 Q1013 NOSIG
Station Punta Arenas
Date/Time 22 October 2019 03:00:00
Wind direction 300°
Wind speed 22 kts
Lowest cloud amount few clouds
Temperature 8°C
Dew point 2°C
Humidity 65%
QNH 1013 hPa
Weather condition n/a

Punta Arenas/Carlos Ibanez Del Campo Airport

ICAO: SCCI IATA: PUG

Description

International airport serving Punta Arenas.

Climatology

Cold Semi-arid climate (Köppen climate classification BSk)

Maps

Terrain

Loading map...

Airport Layout

Loading map...


Accidents & Serious Incidents at or in vicinity of SCCI

None on SKYbrary